Log in

Login to your account

Username *
Password *
Remember Me
User Registration
User Profile
(optional)
Cancel

Nous contacter

 Téléphone : +33 (0)4 79 54 41 81

Coordonnées détaillées et accès : cliquez ici

 
LFLB °C
    Ferienhaus Ostsee
[source: ADDS]
METAR
LFLB 282230Z AUTO VRB03KT 9999 FEW044/// SCT070/// OVC092/// ///TCU 12/12 Q1022 =
TAF LFLB 281400Z 2815/2915 18010KT 9999 BKN060 PROB40 TEMPO 2815/2819 SHRA SCT040TCU TEMPO 2901/2906 5000 -RA BECMG 2908/2910 36005KT
TAF
TAF LFLB 281400Z 2815/2915 18010KT 9999 BKN060 PROB40 TEMPO 2815/2819 SHRA SCT040TCU TEMPO 2901/2906 5000 -RA BECMG 2908/2910 36005KT =
SR / SS: 06:11 / 16:29 UTC (Lever/Coucher du soleil le 2020-10-28)
JSN Boot template designed by JoomlaShine.com